Time;durP1;ratioP1;P1;durP2;ratioP2;P2;SDS_P1;SDS_P2;PMS_P1;PMS_P2;Temp;Humidity;BMP_temperature;BMP_pressure;BME280_temperature;BME280_humidity;BME280_pressure;Samples;Min_cycle;Max_cycle;Signal;HPM_P1;HPM_P2
2022/10/27 00:00:40;;;;;;;17.75;7.50;;;;;;;15.37;100.00;101675.44;2094917;28;20082;-72
2022/10/27 00:02:03;;;;;;;17.13;6.45;;;;;;;15.37;100.00;101675.44;2094226;28;20052;-73
2022/10/27 00:03:25;;;;;;;10.75;6.57;;;;;;;15.37;100.00;101688.75;2094738;28;20119;-72
2022/10/27 00:04:47;;;;;;;14.38;6.28;;;;;;;15.34;100.00;101673.66;2099419;28;20392;-72
2022/10/27 00:06:08;;;;;;;13.52;6.63;;;;;;;15.34;100.00;101675.44;2088929;28;20114;-72
2022/10/27 00:07:30;;;;;;;10.35;6.00;;;;;;;15.33;100.00;101670.97;2091608;28;20130;-72
2022/10/27 00:08:53;;;;;;;14.23;6.30;;;;;;;15.33;100.00;101681.63;2077540;28;20041;-72
2022/10/27 00:10:15;;;;;;;12.77;6.10;;;;;;;15.30;100.00;101676.25;2100021;28;20059;-72
2022/10/27 00:11:38;;;;;;;14.60;6.72;;;;;;;15.29;100.00;101674.50;2087744;28;20048;-72
2022/10/27 00:13:00;;;;;;;14.65;6.05;;;;;;;15.29;100.00;101678.03;2099966;28;20055;-72
2022/10/27 00:14:25;;;;;;;11.82;6.22;;;;;;;15.28;100.00;101678.91;2097165;28;20186;-73
2022/10/27 00:15:56;;;;;;;15.30;6.20;;;;;;;15.29;100.00;101677.16;2093983;28;20412;-73
2022/10/27 00:17:18;;;;;;;14.35;6.28;;;;;;;15.28;100.00;101672.69;2087933;28;20052;-72
2022/10/27 00:18:40;;;;;;;14.55;6.70;;;;;;;15.28;100.00;101678.91;2094430;28;20098;-72
2022/10/27 00:20:01;;;;;;;14.18;6.95;;;;;;;15.30;100.00;101681.56;2095082;28;20036;-72
2022/10/27 00:21:24;;;;;;;14.43;6.15;;;;;;;15.29;100.00;101671.84;2096195;28;20080;-72
2022/10/27 00:22:46;;;;;;;15.65;6.65;;;;;;;15.28;100.00;101672.69;2085924;28;20477;-72
2022/10/27 00:24:09;;;;;;;12.40;6.53;;;;;;;15.28;100.00;101680.69;2099510;28;20542;-72
2022/10/27 00:25:32;;;;;;;14.77;6.65;;;;;;;15.26;100.00;101675.34;2080844;28;20095;-72
2022/10/27 00:26:54;;;;;;;17.38;7.68;;;;;;;15.27;100.00;101678.91;2098197;28;20048;-72
2022/10/27 00:28:15;;;;;;;13.05;6.72;;;;;;;15.26;100.00;101675.34;2080619;28;20041;-73
2022/10/27 00:29:39;;;;;;;12.73;6.10;;;;;;;15.27;100.00;101678.91;2091247;28;20052;-72
2022/10/27 00:31:03;;;;;;;14.80;6.10;;;;;;;15.26;100.00;101677.09;2080728;28;20378;-72
2022/10/27 00:32:26;;;;;;;13.63;6.32;;;;;;;15.24;100.00;101681.50;2084121;28;20063;-72
2022/10/27 00:33:49;;;;;;;18.55;7.30;;;;;;;15.21;100.00;101674.41;2085861;28;20049;-72
2022/10/27 00:35:11;;;;;;;20.35;6.47;;;;;;;15.18;100.00;101676.13;2086267;28;20037;-72
2022/10/27 00:36:33;;;;;;;12.18;6.65;;;;;;;15.18;100.00;101676.13;2085908;28;20475;-72
2022/10/27 00:37:55;;;;;;;14.88;7.53;;;;;;;15.18;100.00;101673.47;2085942;28;20057;-73
2022/10/27 00:39:17;;;;;;;11.90;6.55;;;;;;;15.19;100.00;101676.16;2094168;28;20044;-72
2022/10/27 00:40:38;;;;;;;14.27;6.68;;;;;;;15.20;100.00;101674.38;2088592;28;20456;-72
2022/10/27 00:42:01;;;;;;;15.55;6.68;;;;;;;15.19;100.00;101678.81;2085855;28;20033;-72
2022/10/27 00:43:27;;;;;;;11.00;6.32;;;;;;;15.17;100.00;101675.22;2085891;28;20056;-72
2022/10/27 00:44:51;;;;;;;12.68;5.80;;;;;;;15.12;100.00;101683.16;2086685;28;20048;-72
2022/10/27 00:46:22;;;;;;;15.45;6.82;;;;;;;15.09;100.00;101682.25;2094136;28;20063;-72
2022/10/27 00:47:43;;;;;;;13.10;6.45;;;;;;;15.07;100.00;101679.56;2088792;28;20531;-72
2022/10/27 00:49:09;;;;;;;14.40;7.13;;;;;;;15.07;100.00;101676.91;2088717;28;20064;-72
2022/10/27 00:50:30;;;;;;;12.23;7.20;;;;;;;15.08;100.00;101683.13;2094394;28;20099;-72
2022/10/27 00:51:57;;;;;;;16.70;7.25;;;;;;;15.07;100.00;101676.91;2088553;28;20144;-72
2022/10/27 00:53:19;;;;;;;15.10;7.07;;;;;;;15.04;100.00;101668.88;2086665;28;20110;-72
2022/10/27 00:54:42;;;;;;;17.05;7.72;;;;;;;15.05;100.00;101681.28;2096397;28;20362;-72
2022/10/27 00:56:06;;;;;;;14.35;7.15;;;;;;;15.04;100.00;101676.84;2096287;28;20048;-72
2022/10/27 00:57:31;;;;;;;13.88;6.88;;;;;;;15.03;100.00;101672.41;2088975;28;20060;-72
2022/10/27 00:58:53;;;;;;;15.27;6.32;;;;;;;15.04;100.00;101670.63;2087543;28;20045;-72
2022/10/27 01:00:18;;;;;;;15.52;6.38;;;;;;;15.05;100.00;101681.28;2085840;28;20064;-72
2022/10/27 01:01:40;;;;;;;14.05;6.28;;;;;;;15.06;100.00;101682.19;2092098;28;20056;-72
2022/10/27 01:03:04;;;;;;;17.65;6.90;;;;;;;15.06;100.00;101677.78;2085714;28;20075;-72
2022/10/27 01:04:32;;;;;;;17.85;7.95;;;;;;;15.07;100.00;101684.88;2083268;28;20045;-72
2022/10/27 01:05:57;;;;;;;16.80;6.40;;;;;;;15.07;100.00;101678.66;2093021;28;20134;-72
2022/10/27 01:07:20;;;;;;;14.18;6.88;;;;;;;15.05;100.00;101675.97;2093954;28;20052;-72
2022/10/27 01:08:44;;;;;;;18.70;6.32;;;;;;;15.02;100.00;101681.28;2085938;28;20444;-72
2022/10/27 01:10:06;;;;;;;15.55;6.32;;;;;;;14.98;100.00;101682.09;2087953;28;20036;-72
2022/10/27 01:11:28;;;;;;;13.07;6.80;;;;;;;14.92;100.00;101682.03;2096220;28;20346;-73
2022/10/27 01:12:51;;;;;;;13.65;6.38;;;;;;;14.88;100.00;101680.22;2101873;28;20044;-72
2022/10/27 01:14:12;;;;;;;12.43;6.28;;;;;;;14.88;100.00;101688.19;2088205;28;20057;-73
2022/10/27 01:15:45;;;;;;;17.80;7.32;;;;;;;14.87;100.00;101688.16;2093677;28;20090;-73
2022/10/27 01:17:17;;;;;;;14.95;7.47;;;;;;;14.87;100.00;101685.50;2095558;28;20068;-72
2022/10/27 01:18:53;;;;;;;14.23;6.53;;;;;;;14.85;100.00;101688.13;2088966;28;20064;-73
2022/10/27 01:20:45;;;;;;;12.57;6.43;;;;;;;14.85;100.00;101677.50;2087477;28;20041;-72
2022/10/27 01:22:10;;;;;;;15.23;7.07;;;;;;;14.84;100.00;101690.75;2095310;28;20100;-72
2022/10/27 01:23:49;;;;;;;14.35;6.53;;;;;;;14.84;100.00;101686.34;2094131;28;20056;-72
2022/10/27 01:25:28;;;;;;;14.43;7.07;;;;;;;14.81;100.00;101691.63;2086652;28;20415;-72
2022/10/27 01:26:52;;;;;;;13.48;6.68;;;;;;;14.80;100.00;101687.19;2104668;28;20066;-72
2022/10/27 01:28:51;;;;;;;12.23;6.45;;;;;;;14.81;100.00;101686.31;2095565;28;20097;-72
2022/10/27 01:30:18;;;;;;;15.30;7.38;;;;;;;14.80;100.00;101683.63;2063124;28;20089;-72
2022/10/27 01:31:46;;;;;;;15.80;7.20;;;;;;;14.82;100.00;101682.78;2078956;28;20057;-72
2022/10/27 01:33:15;;;;;;;14.02;7.03;;;;;;;14.83;100.00;101681.94;2084282;28;20057;-72
2022/10/27 01:34:44;;;;;;;14.30;7.65;;;;;;;14.85;100.00;101687.22;2092613;28;20044;-72
2022/10/27 01:36:14;;;;;;;20.83;7.38;;;;;;;14.84;100.00;101673.06;2094837;28;20090;-72
2022/10/27 01:37:41;;;;;;;13.60;6.95;;;;;;;14.87;100.00;101686.41;2071184;28;20046;-72
2022/10/27 01:39:07;;;;;;;13.27;6.63;;;;;;;14.87;100.00;101678.41;2092329;28;20052;-72
2022/10/27 01:40:34;;;;;;;13.68;6.43;;;;;;;14.88;100.00;101688.19;2093683;28;20113;-72
2022/10/27 01:42:07;;;;;;;13.50;6.70;;;;;;;14.89;100.00;101683.75;2086574;28;20107;-72
2022/10/27 01:43:32;;;;;;;16.38;7.20;;;;;;;14.86;100.00;101679.28;2086108;28;20043;-72
2022/10/27 01:44:57;;;;;;;13.73;6.43;;;;;;;14.85;100.00;101688.13;2100257;28;20040;-72
2022/10/27 01:46:20;;;;;;;14.20;7.10;;;;;;;14.83;100.00;101684.59;2096373;28;20147;-72
2022/10/27 01:47:43;;;;;;;15.60;6.47;;;;;;;14.84;100.00;101685.44;2085784;28;20048;-73
2022/10/27 01:49:07;;;;;;;11.60;6.28;;;;;;;14.84;100.00;101688.09;2101972;28;20616;-72
2022/10/27 01:50:33;;;;;;;14.00;6.78;;;;;;;14.83;100.00;101689.91;2104500;28;20082;-72
2022/10/27 01:52:05;;;;;;;12.95;6.75;;;;;;;14.82;100.00;101682.78;2096381;28;20443;-72
2022/10/27 01:53:28;;;;;;;14.65;7.20;;;;;;;14.82;100.00;101685.44;2096114;28;20052;-72
2022/10/27 01:54:50;;;;;;;13.45;7.00;;;;;;;14.82;100.00;101679.25;2102490;28;20036;-72
2022/10/27 01:56:39;;;;;;;13.70;6.93;;;;;;;14.84;100.00;101688.09;2096370;28;20412;-72
2022/10/27 01:58:24;;;;;;;16.85;6.85;;;;;;;14.81;100.00;101694.28;2096295;28;20075;-72
2022/10/27 02:00:01;;;;;;;11.10;6.72;;;;;;;14.81;100.00;101690.75;2087969;28;20044;-72
2022/10/27 02:01:36;;;;;;;14.52;7.85;;;;;;;14.81;100.00;101694.28;2094136;28;20048;-72
2022/10/27 02:03:07;;;;;;;12.25;7.22;;;;;;;14.82;100.00;101692.53;2095457;28;20449;-72
2022/10/27 02:04:41;;;;;;;13.25;7.10;;;;;;;14.82;100.00;101695.19;2086968;28;20049;-72
2022/10/27 02:06:10;;;;;;;13.40;7.97;;;;;;;14.80;100.00;101688.94;2093323;28;20134;-72
2022/10/27 02:07:41;;;;;;;17.73;7.38;;;;;;;14.78;100.00;101688.91;2100905;28;20040;-72
2022/10/27 02:09:10;;;;;;;13.55;7.22;;;;;;;14.77;100.00;101687.13;2086820;28;20589;-72
2022/10/27 02:10:40;;;;;;;14.45;7.03;;;;;;;14.77;100.00;101687.13;2092337;28;20048;-72
2022/10/27 02:12:08;;;;;;;13.75;7.03;;;;;;;14.75;100.00;101695.09;2088414;28;20140;-72
2022/10/27 02:13:32;;;;;;;13.65;7.10;;;;;;;14.74;100.00;101690.66;2102735;28;20799;-72
2022/10/27 02:14:56;;;;;;;13.63;6.85;;;;;;;14.72;100.00;101688.84;2096323;28;20292;-72
2022/10/27 02:16:24;;;;;;;14.68;7.40;;;;;;;14.70;100.00;101688.81;2093521;28;20516;-73
2022/10/27 02:17:50;;;;;;;14.75;6.90;;;;;;;14.70;100.00;101693.25;2086074;28;20075;-72
2022/10/27 02:19:18;;;;;;;14.25;7.22;;;;;;;14.70;100.00;101695.91;2084575;28;20635;-72
2022/10/27 02:20:45;;;;;;;11.70;7.47;;;;;;;14.69;100.00;101688.81;2087838;28;20057;-72
2022/10/27 02:22:08;;;;;;;15.65;7.95;;;;;;;14.68;100.00;101695.91;2091063;28;20041;-72
2022/10/27 02:23:32;;;;;;;14.60;7.10;;;;;;;14.68;100.00;101695.00;2087325;28;20118;-72
2022/10/27 02:24:54;;;;;;;12.13;7.80;;;;;;;14.66;100.00;101692.31;2092977;28;20044;-72
2022/10/27 02:26:22;;;;;;;15.90;7.55;;;;;;;14.65;100.00;101700.25;2103250;28;20186;-72
2022/10/27 02:27:50;;;;;;;17.15;7.43;;;;;;;14.63;100.00;101696.72;2097827;28;20102;-72
2022/10/27 02:29:15;;;;;;;16.27;7.40;;;;;;;14.63;100.00;101702.91;2097668;28;20045;-72
2022/10/27 02:30:39;;;;;;;13.95;7.53;;;;;;;14.63;100.00;101696.72;2086603;28;20043;-72
2022/10/27 02:32:04;;;;;;;15.88;7.30;;;;;;;14.64;100.00;101703.78;2092506;28;20056;-71
2022/10/27 02:33:26;;;;;;;13.18;7.18;;;;;;;14.62;100.00;101702.88;2103862;28;20067;-71
2022/10/27 02:34:51;;;;;;;13.25;7.13;;;;;;;14.61;100.00;101698.44;2087160;28;20056;-71
2022/10/27 02:36:13;;;;;;;13.38;7.47;;;;;;;14.59;100.00;101700.16;2097344;28;20401;-71
2022/10/27 02:37:38;;;;;;;10.20;6.80;;;;;;;14.59;100.00;101702.81;2086747;28;20385;-71
2022/10/27 02:38:59;;;;;;;15.55;6.97;;;;;;;14.58;100.00;101704.59;2084484;28;20085;-72
2022/10/27 02:40:21;;;;;;;14.82;7.18;;;;;;;14.57;100.00;101712.56;2087263;28;20679;-71
2022/10/27 02:41:44;;;;;;;14.02;7.80;;;;;;;14.57;100.00;101712.56;2090282;28;20066;-71
2022/10/27 02:43:07;;;;;;;13.82;7.65;;;;;;;14.56;100.00;101709.03;2094869;28;20036;-71
2022/10/27 02:44:28;;;;;;;13.93;6.90;;;;;;;14.56;100.00;101703.69;2086848;28;20138;-72
2022/10/27 02:45:51;;;;;;;15.32;7.43;;;;;;;14.55;100.00;101709.88;2095034;28;20040;-71
2022/10/27 02:47:12;;;;;;;13.35;6.88;;;;;;;14.55;100.00;101716.97;2094969;28;20056;-72
2022/10/27 02:48:35;;;;;;;15.90;7.93;;;;;;;14.54;100.00;101708.09;2087083;28;20044;-72
2022/10/27 02:49:57;;;;;;;14.10;7.32;;;;;;;14.55;100.00;101712.53;2090799;28;20037;-72
2022/10/27 02:51:20;;;;;;;15.07;7.78;;;;;;;14.55;100.00;101709.88;2087686;28;20136;-72
2022/10/27 02:52:42;;;;;;;13.27;7.32;;;;;;;14.55;100.00;101715.19;2093017;28;20040;-72
2022/10/27 02:54:05;;;;;;;16.35;7.07;;;;;;;14.54;100.00;101724.03;2086652;28;20045;-71
2022/10/27 02:55:27;;;;;;;15.13;7.80;;;;;;;14.53;100.00;101719.59;2089863;28;20049;-72
2022/10/27 02:56:49;;;;;;;18.25;7.57;;;;;;;14.54;100.00;101725.78;2094705;28;20040;-72
2022/10/27 02:58:12;;;;;;;15.65;8.02;;;;;;;14.52;100.00;101724.88;2089293;28;20049;-72
2022/10/27 02:59:34;;;;;;;14.48;8.02;;;;;;;14.50;100.00;101721.31;2089693;28;20053;-71
2022/10/27 03:00:57;;;;;;;17.33;8.05;;;;;;;14.49;100.00;101717.75;2086939;28;20496;-72
2022/10/27 03:02:18;;;;;;;13.77;8.48;;;;;;;14.47;100.00;101715.94;2095224;28;20056;-72
2022/10/27 03:03:41;;;;;;;16.90;7.88;;;;;;;14.46;100.00;101730.09;2089473;28;20095;-72
2022/10/27 03:05:04;;;;;;;13.70;7.80;;;;;;;14.45;100.00;101720.31;2096546;28;20097;-72
2022/10/27 03:06:26;;;;;;;14.55;7.65;;;;;;;14.43;100.00;101719.44;2089247;28;20080;-72
2022/10/27 03:07:49;;;;;;;14.40;7.90;;;;;;;14.44;100.00;101715.91;2092354;28;20056;-71
2022/10/27 03:09:10;;;;;;;14.85;8.00;;;;;;;14.45;100.00;101720.31;2086985;28;20489;-72
2022/10/27 03:10:33;;;;;;;20.85;7.95;;;;;;;14.45;100.00;101717.66;2094935;28;20771;-71
2022/10/27 03:11:56;;;;;;;11.80;7.18;;;;;;;14.47;100.00;101718.59;2072577;28;20107;-72
2022/10/27 03:13:17;;;;;;;15.30;8.52;;;;;;;14.46;100.00;101723.03;2084171;28;20045;-72
2022/10/27 03:14:40;;;;;;;14.50;7.80;;;;;;;14.44;100.00;101723.88;2094258;28;20045;-72
2022/10/27 03:16:02;;;;;;;18.27;7.68;;;;;;;14.45;100.00;101723.00;2088826;28;20048;-72
2022/10/27 03:17:23;;;;;;;18.90;7.70;;;;;;;14.45;100.00;101721.22;2086268;28;20044;-73
2022/10/27 03:18:45;;;;;;;16.83;8.43;;;;;;;14.47;100.00;101735.44;2092789;28;20041;-72
2022/10/27 03:20:10;;;;;;;17.30;8.57;;;;;;;14.48;100.00;101725.72;2102976;28;20104;-72
2022/10/27 03:21:33;;;;;;;12.82;7.07;;;;;;;14.48;100.00;101725.72;2097167;28;20103;-72
2022/10/27 03:22:54;;;;;;;15.77;8.15;;;;;;;14.48;100.00;101728.38;2088843;28;20094;-71
2022/10/27 03:24:16;;;;;;;12.68;7.97;;;;;;;14.47;100.00;101727.47;2097927;28;20068;-72
2022/10/27 03:25:42;;;;;;;14.93;7.65;;;;;;;14.48;100.00;101725.72;2088316;28;20458;-72
2022/10/27 03:27:05;;;;;;;14.25;7.75;;;;;;;14.45;100.00;101726.53;2098066;28;20552;-72
2022/10/27 03:28:28;;;;;;;15.35;8.00;;;;;;;14.44;100.00;101719.44;2088784;28;20098;-72
2022/10/27 03:29:51;;;;;;;14.07;8.52;;;;;;;14.44;100.00;101724.75;2099907;28;20044;-72
2022/10/27 03:31:12;;;;;;;15.00;7.53;;;;;;;14.45;100.00;101723.00;2088709;28;20082;-72
2022/10/27 03:32:35;;;;;;;19.40;8.00;;;;;;;14.45;100.00;101733.63;2099462;28;20503;-72
2022/10/27 03:33:58;;;;;;;21.80;8.75;;;;;;;14.45;100.00;101731.84;2088629;28;20100;-72
2022/10/27 03:35:22;;;;;;;16.80;8.50;;;;;;;14.46;100.00;101730.09;2091301;28;20150;-72
2022/10/27 03:36:44;;;;;;;14.82;8.27;;;;;;;14.45;100.00;101721.22;2094410;28;20048;-72
2022/10/27 03:38:06;;;;;;;16.88;8.07;;;;;;;14.45;100.00;101733.63;2100028;28;20041;-72
2022/10/27 03:39:28;;;;;;;16.27;8.02;;;;;;;14.44;100.00;101727.41;2080050;28;20053;-71
2022/10/27 03:40:49;;;;;;;19.35;8.20;;;;;;;14.45;100.00;101728.31;2084840;28;20052;-71
2022/10/27 03:42:12;;;;;;;17.17;7.90;;;;;;;14.45;100.00;101731.84;2093793;28;20048;-71
2022/10/27 03:43:34;;;;;;;16.80;8.35;;;;;;;14.44;100.00;101730.06;2094403;28;20448;-72
2022/10/27 03:44:56;;;;;;;16.95;8.43;;;;;;;14.44;100.00;101732.72;2094152;28;20110;-72
2022/10/27 03:46:18;;;;;;;16.73;8.50;;;;;;;14.45;100.00;101738.94;2093754;28;20068;-72
2022/10/27 03:47:39;;;;;;;15.23;8.52;;;;;;;14.46;100.00;101730.09;2086298;28;20585;-72
2022/10/27 03:49:02;;;;;;;17.42;8.57;;;;;;;14.46;100.00;101730.09;2093877;28;20377;-72
2022/10/27 03:50:25;;;;;;;14.65;8.13;;;;;;;14.46;100.00;101731.00;2096613;28;20036;-72
2022/10/27 03:51:47;;;;;;;14.75;8.13;;;;;;;14.47;100.00;101731.88;2094512;28;20504;-72
2022/10/27 03:53:10;;;;;;;17.52;8.30;;;;;;;14.46;100.00;101732.75;2093982;28;20048;-72
2022/10/27 03:54:33;;;;;;;18.38;8.35;;;;;;;14.47;100.00;101739.84;2093970;28;20067;-73
2022/10/27 03:55:54;;;;;;;15.48;8.63;;;;;;;14.45;100.00;101738.94;2085620;28;20036;-72
2022/10/27 03:57:17;;;;;;;16.00;8.32;;;;;;;14.44;100.00;101730.06;2082612;28;20072;-72
2022/10/27 03:58:39;;;;;;;15.02;7.43;;;;;;;14.44;100.00;101737.16;2091334;28;20393;-72
2022/10/27 04:00:01;;;;;;;20.27;8.48;;;;;;;14.43;100.00;101736.28;2080245;28;20053;-72
2022/10/27 04:01:23;;;;;;;16.25;8.95;;;;;;;14.43;100.00;101735.38;2099715;28;20078;-72
2022/10/27 04:02:45;;;;;;;18.08;8.73;;;;;;;14.42;100.00;101736.25;2090841;28;20053;-72
2022/10/27 04:04:07;;;;;;;16.80;9.15;;;;;;;14.41;100.00;101738.00;2083126;28;20128;-72
2022/10/27 04:05:30;;;;;;;17.42;7.90;;;;;;;14.41;100.00;101738.00;2083153;28;20048;-72
2022/10/27 04:06:52;;;;;;;18.88;8.15;;;;;;;14.41;100.00;101745.06;2099453;28;20055;-72
2022/10/27 04:08:14;;;;;;;18.05;8.52;;;;;;;14.42;100.00;101746.88;2096938;28;20129;-72
2022/10/27 04:09:36;;;;;;;15.23;8.60;;;;;;;14.40;100.00;101743.28;2092998;28;20048;-72
2022/10/27 04:10:57;;;;;;;15.00;8.45;;;;;;;14.42;100.00;101749.53;2085555;28;20070;-72
2022/10/27 04:12:39;;;;;;;13.77;8.35;;;;;;;14.41;100.00;101747.72;2128080;27;20434;-70
2022/10/27 04:14:01;;;;;;;19.50;8.63;;;;;;;14.41;100.00;101748.63;2111759;28;20059;-73
2022/10/27 04:15:25;;;;;;;18.92;9.23;;;;;;;14.39;100.00;101755.66;2109466;28;20051;-73
2022/10/27 04:16:50;;;;;;;19.55;8.95;;;;;;;14.39;100.00;101749.47;2103571;28;20060;-73
2022/10/27 04:18:14;;;;;;;18.58;9.48;;;;;;;14.39;100.00;101738.84;2103393;28;20040;-73
2022/10/27 04:19:37;;;;;;;15.57;9.13;;;;;;;14.43;100.00;101753.97;2096892;28;20052;-73
2022/10/27 04:21:03;;;;;;;16.45;8.93;;;;;;;14.44;100.00;101758.41;2089912;28;20049;-73
2022/10/27 04:22:24;;;;;;;15.85;9.38;;;;;;;14.43;100.00;101753.97;2102929;28;20048;-73
2022/10/27 04:23:47;;;;;;;17.20;8.75;;;;;;;14.44;100.00;101755.75;2108410;28;20135;-73
2022/10/27 04:25:10;;;;;;;16.02;8.68;;;;;;;14.44;100.00;101753.97;2098210;28;20053;-73
2022/10/27 04:26:32;;;;;;;14.52;8.55;;;;;;;14.43;100.00;101754.88;2089970;28;20041;-74
2022/10/27 04:28:00;;;;;;;19.48;9.15;;;;;;;14.45;100.00;101770.81;2095950;28;20550;-73
2022/10/27 04:29:23;;;;;;;18.35;9.82;;;;;;;14.43;100.00;101760.19;2085081;28;20491;-73
2022/10/27 04:30:45;;;;;;;19.48;9.27;;;;;;;14.43;100.00;101761.94;2104529;28;20043;-73
2022/10/27 04:32:06;;;;;;;14.02;8.63;;;;;;;14.41;100.00;101761.91;2086988;28;20077;-73
2022/10/27 04:33:29;;;;;;;18.13;9.07;;;;;;;14.42;100.00;101766.34;2096388;28;20044;-73
2022/10/27 04:34:51;;;;;;;17.40;9.55;;;;;;;14.43;100.00;101764.59;2102995;28;20146;-73
2022/10/27 04:36:13;;;;;;;18.25;9.38;;;;;;;14.44;100.00;101766.41;2102147;28;20068;-73
2022/10/27 04:37:35;;;;;;;16.63;9.63;;;;;;;14.44;100.00;101769.91;2096787;28;20086;-72
2022/10/27 04:38:58;;;;;;;18.05;8.88;;;;;;;14.44;100.00;101769.91;2100692;28;20044;-73
2022/10/27 04:40:20;;;;;;;15.15;9.27;;;;;;;14.44;100.00;101774.38;2100442;28;20093;-73
2022/10/27 04:41:42;;;;;;;25.75;9.80;;;;;;;14.44;100.00;101766.41;2092957;28;20513;-73
2022/10/27 04:43:06;;;;;;;21.42;9.73;;;;;;;14.47;100.00;101769.09;2084405;28;20047;-73
2022/10/27 04:44:28;;;;;;;20.80;10.65;;;;;;;14.46;100.00;101767.28;2098215;28;20528;-73
2022/10/27 04:45:50;;;;;;;18.50;10.40;;;;;;;14.47;100.00;101769.09;2109198;28;20044;-73
2022/10/27 04:47:13;;;;;;;19.38;9.65;;;;;;;14.50;100.00;101772.69;2100522;28;20056;-73
2022/10/27 04:48:35;;;;;;;22.13;10.82;;;;;;;14.52;100.00;101773.59;2089628;28;20036;-73
2022/10/27 04:49:57;;;;;;;20.92;10.27;;;;;;;14.56;100.00;101775.44;2087631;28;20045;-72
2022/10/27 04:51:20;;;;;;;15.02;9.70;;;;;;;14.58;100.00;101781.66;2089668;28;20049;-73
2022/10/27 04:52:42;;;;;;;18.88;10.10;;;;;;;14.60;100.00;101779.03;2097894;28;20393;-73
2022/10/27 04:54:05;;;;;;;21.35;10.07;;;;;;;14.62;100.00;101780.84;2105797;28;20044;-73
2022/10/27 04:55:29;;;;;;;21.30;11.40;;;;;;;14.66;100.00;101781.78;2100490;28;20044;-73
2022/10/27 04:56:51;;;;;;;21.20;10.77;;;;;;;14.68;100.00;101778.28;2114099;28;20039;-73
2022/10/27 04:58:14;;;;;;;16.10;10.38;;;;;;;14.71;100.00;101775.66;2100889;28;20107;-73
2022/10/27 04:59:36;;;;;;;15.52;9.52;;;;;;;14.74;100.00;101788.13;2092193;28;20592;-73
2022/10/27 05:00:59;;;;;;;17.42;9.98;;;;;;;14.75;100.00;101781.94;2097565;28;20052;-72
2022/10/27 05:02:20;;;;;;;18.65;9.55;;;;;;;14.77;100.00;101791.69;2090971;28;20475;-73
2022/10/27 05:03:42;;;;;;;16.55;10.18;;;;;;;14.80;100.00;101788.22;2091458;28;20067;-73
2022/10/27 05:05:05;;;;;;;16.52;9.85;;;;;;;14.85;100.00;101786.50;2092361;28;20044;-72
2022/10/27 05:06:28;;;;;;;19.25;10.25;;;;;;;14.87;100.00;101786.53;2092338;28;20064;-72
2022/10/27 05:07:53;;;;;;;16.30;9.80;;;;;;;14.88;100.00;101790.97;2095687;28;20086;-73
2022/10/27 05:09:15;;;;;;;18.10;10.52;;;;;;;14.90;100.00;101795.44;2096125;28;20059;-73
2022/10/27 05:10:38;;;;;;;17.65;9.20;;;;;;;14.95;100.00;101800.84;2097099;28;20032;-73
2022/10/27 05:12:00;;;;;;;18.23;10.40;;;;;;;14.99;100.00;101802.66;2092055;28;20121;-72
2022/10/27 05:13:24;;;;;;;15.50;9.40;;;;;;;15.03;100.00;101800.06;2088161;28;20041;-73
2022/10/27 05:14:47;;;;;;;18.17;10.77;;;;;;;15.11;100.00;101803.72;2098358;28;20580;-73
2022/10/27 05:16:10;;;;;;;20.15;11.07;;;;;;;15.25;100.00;101805.66;2109060;28;20040;-73
2022/10/27 05:17:33;;;;;;;17.25;9.63;;;;;;;15.38;100.00;101807.63;2091880;28;20107;-72
2022/10/27 05:18:55;;;;;;;15.50;9.70;;;;;;;15.52;100.00;101812.28;2084015;28;20053;-73
2022/10/27 05:20:17;;;;;;;17.20;9.27;;;;;;;15.66;100.00;101817.78;2093111;28;20052;-73
2022/10/27 05:21:39;;;;;;;17.75;9.85;;;;;;;15.77;100.00;101812.56;2100232;28;20068;-73
2022/10/27 05:23:02;;;;;;;13.18;8.07;;;;;;;15.88;100.00;101816.25;2092163;28;20053;-73
2022/10/27 05:24:24;;;;;;;14.77;7.28;;;;;;;16.02;100.00;101824.34;2090295;28;20036;-73
2022/10/27 05:25:51;;;;;;;14.93;6.75;;;;;;;16.15;100.00;101827.16;2081675;28;20052;-73
2022/10/27 05:27:13;;;;;;;16.00;7.30;;;;;;;16.28;100.00;101823.75;2085513;28;20056;-73
2022/10/27 05:28:42;;;;;;;13.15;7.60;;;;;;;16.42;100.00;101833.63;2094481;28;20549;-73
2022/10/27 05:30:06;;;;;;;15.43;7.05;;;;;;;16.53;100.00;101830.22;2092369;28;20630;-70
2022/10/27 05:31:29;;;;;;;15.77;6.93;;;;;;;16.66;100.00;101821.47;2094230;28;20083;-70
2022/10/27 05:32:50;;;;;;;13.38;6.85;;;;;;;16.80;100.00;101829.56;2084084;28;20044;-71
2022/10/27 05:34:13;;;;;;;12.93;6.55;;;;;;;16.93;100.00;101820.75;2080843;28;20485;-71
2022/10/27 05:35:35;;;;;;;15.93;8.13;;;;;;;17.05;100.00;101823.50;2092952;28;20044;-70
2022/10/27 05:36:58;;;;;;;19.77;7.57;;;;;;;17.17;100.00;101822.69;2090542;28;20132;-71
2022/10/27 05:38:19;;;;;;;13.48;7.38;;;;;;;17.27;100.00;101824.50;2098275;28;20598;-71
2022/10/27 05:39:42;;;;;;;12.15;7.20;;;;;;;17.38;100.00;101825.47;2096245;28;20128;-71
2022/10/27 05:41:05;;;;;;;11.75;6.80;;;;;;;17.50;100.00;101827.28;2086787;28;20048;-71
2022/10/27 05:42:28;;;;;;;13.77;6.55;;;;;;;17.63;100.00;101826.47;2079444;28;20139;-73
2022/10/27 05:43:52;;;;;;;17.15;6.70;;;;;;;17.76;100.00;101819.41;2091076;28;20037;-74
2022/10/27 05:45:13;;;;;;;15.02;6.80;;;;;;;17.86;100.00;101823.88;2085414;28;20044;-74
2022/10/27 05:46:36;;;;;;;13.63;6.40;;;;;;;17.88;100.00;101820.31;2078358;28;20042;-74
2022/10/27 05:47:58;;;;;;;16.90;7.03;;;;;;;17.96;100.00;101827.47;2078224;28;20053;-74
2022/10/27 05:49:20;;;;;;;15.70;6.30;;;;;;;18.05;100.00;101827.50;2083600;28;20075;-74
2022/10/27 05:50:42;;;;;;;13.90;6.15;;;;;;;18.17;100.00;101824.84;2078385;28;20407;-74
2022/10/27 05:52:04;;;;;;;11.40;5.80;;;;;;;18.29;100.00;101830.22;2089435;28;20141;-73
2022/10/27 05:53:26;;;;;;;18.88;7.63;;;;;;;18.45;100.00;101825.75;2086580;28;20049;-73
2022/10/27 05:54:48;;;;;;;20.98;6.60;;;;;;;18.55;100.00;101827.53;2094644;28;20080;-74
2022/10/27 05:56:10;;;;;;;10.68;6.57;;;;;;;18.65;100.00;101827.56;2089227;28;20539;-73
2022/10/27 05:57:33;;;;;;;21.02;6.88;;;;;;;18.77;100.00;101829.38;2103887;28;20040;-71
2022/10/27 05:58:57;;;;;;;14.20;5.40;;;;;;;18.89;100.00;101832.03;2105166;28;20553;-71
2022/10/27 06:00:20;;;;;;;12.13;6.22;;;;;;;19.00;100.00;101826.63;2111486;28;20116;-71
2022/10/27 06:01:44;;;;;;;15.77;6.15;;;;;;;19.13;100.00;101827.50;2105297;28;20484;-71
2022/10/27 06:03:07;;;;;;;16.02;7.35;;;;;;;19.26;100.00;101823.91;2111664;28;20104;-70
2022/10/27 06:04:29;;;;;;;15.23;7.00;;;;;;;19.42;100.00;101829.22;2103755;28;20056;-71
2022/10/27 06:05:52;;;;;;;27.30;10.20;;;;;;;19.58;100.00;101824.69;2092663;28;20101;-71
2022/10/27 06:07:14;;;;;;;24.13;11.63;;;;;;;19.70;100.00;101827.31;2078455;28;20459;-70
2022/10/27 06:08:36;;;;;;;28.80;12.00;;;;;;;19.81;100.00;101836.22;2091803;28;20042;-71
2022/10/27 06:09:59;;;;;;;25.83;10.95;;;;;;;19.92;100.00;101835.25;2092079;28;20063;-71
2022/10/27 06:11:21;;;;;;;31.33;11.25;;;;;;;20.01;100.00;101830.75;2092387;28;20174;-70
2022/10/27 06:12:42;;;;;;;24.58;9.23;;;;;;;20.13;100.00;101837.81;2086097;28;20152;-70
2022/10/27 06:14:07;;;;;;;17.45;6.70;;;;;;;20.23;100.00;101832.38;2085962;28;20132;-71
2022/10/27 06:15:30;;;;;;;22.35;8.90;;;;;;;20.37;100.00;101837.66;2075876;28;20049;-70
2022/10/27 06:16:52;;;;;;;14.05;6.03;;;;;;;20.48;100.00;101826.88;2090723;28;20135;-71
2022/10/27 06:18:14;;;;;;;13.20;5.75;;;;;;;20.60;100.00;101834.81;2086271;28;20096;-71
2022/10/27 06:19:37;;;;;;;11.95;5.55;;;;;;;20.66;100.00;101827.59;2083518;28;20033;-72
2022/10/27 06:21:00;;;;;;;9.55;5.90;;;;;;;20.77;100.00;101834.66;2085789;28;20041;-71
2022/10/27 06:22:22;;;;;;;12.13;6.38;;;;;;;20.92;100.00;101826.47;2090258;28;20508;-71